Time;durP1;ratioP1;P1;durP2;ratioP2;P2;SDS_P1;SDS_P2;PMS_P1;PMS_P2;Temp;Humidity;BMP_temperature;BMP_pressure;BME280_temperature;BME280_humidity;BME280_pressure;Samples;Min_cycle;Max_cycle;Signal;HPM_P1;HPM_P2
2021/11/15 00:03:19;;;;;;;3.77;3.10;;;21.80;54.70;;;;;;4952611;29;21004;-81
2021/11/15 00:05:55;;;;;;;3.87;2.93;;;21.70;54.60;;;;;;4953024;29;20426;-81
2021/11/15 00:08:27;;;;;;;2.70;2.23;;;21.70;54.60;;;;;;4936623;29;20507;-81
2021/11/15 00:10:53;;;;;;;4.10;3.10;;;21.70;54.60;;;;;;4957841;29;20456;-81
2021/11/15 00:13:18;;;;;;;2.83;2.53;;;21.70;54.60;;;;;;4971550;29;20451;-80
2021/11/15 00:15:47;;;;;;;3.27;2.90;;;21.70;54.60;;;;;;4971814;29;20422;-80
2021/11/15 00:18:31;;;;;;;3.90;3.20;;;21.70;54.60;;;;;;4951085;29;20187;-80
2021/11/15 00:24:19;;;;;;;2.53;2.30;;;21.80;54.70;;;;;;4952821;29;20469;-80
2021/11/15 00:30:12;;;;;;;6.13;2.97;;;21.70;54.70;;;;;;5051348;28;20382;-80
2021/11/15 00:32:38;;;;;;;6.03;2.77;;;21.70;54.80;;;;;;5052587;28;20423;-80
2021/11/15 00:35:08;;;;;;;2.87;2.33;;;21.70;54.70;;;;;;5051739;28;20411;-80
2021/11/15 00:37:37;;;;;;;3.40;2.87;;;21.70;54.70;;;;;;5030203;28;20443;-77
2021/11/15 00:40:09;;;;;;;3.23;2.40;;;21.70;54.70;;;;;;5012054;28;20450;-77
2021/11/15 00:42:56;;;;;;;3.10;2.67;;;21.70;54.70;;;;;;5029106;28;20399;-77
2021/11/15 00:45:22;;;;;;;3.23;2.50;;;21.80;54.80;;;;;;5012145;28;20415;-77
2021/11/15 00:47:48;;;;;;;3.97;2.43;;;21.70;54.70;;;;;;5028718;28;20437;-77
2021/11/15 00:50:18;;;;;;;4.30;2.90;;;21.70;55.20;;;;;;5030966;28;20171;-77
2021/11/15 00:52:52;;;;;;;3.47;2.80;;;21.70;54.60;;;;;;5048174;28;20503;-77
2021/11/15 00:55:21;;;;;;;2.80;2.00;;;21.70;54.60;;;;;;5031243;28;20411;-77
2021/11/15 00:57:50;;;;;;;3.77;2.73;;;21.70;54.70;;;;;;5047870;28;20441;-77
2021/11/15 01:00:24;;;;;;;2.30;2.00;;;21.70;54.60;;;;;;5030673;28;20445;-77
2021/11/15 01:02:54;;;;;;;3.63;2.40;;;21.70;54.60;;;;;;5047570;28;20398;-78
2021/11/15 01:05:24;;;;;;;2.30;2.10;;;21.70;54.60;;;;;;5047912;28;20399;-77
2021/11/15 01:08:21;;;;;;;2.50;2.30;;;21.70;54.60;;;;;;5046628;28;20465;-77
2021/11/15 01:10:50;;;;;;;3.90;2.50;;;21.70;54.60;;;;;;5031312;28;20409;-77
2021/11/15 01:13:29;;;;;;;2.93;2.50;;;21.70;54.70;;;;;;5048425;28;20432;-77
2021/11/15 01:15:58;;;;;;;4.13;2.47;;;21.70;54.60;;;;;;5031074;28;20487;-77
2021/11/15 01:18:24;;;;;;;4.00;2.50;;;21.70;54.60;;;;;;5048358;28;20394;-77
2021/11/15 01:20:53;;;;;;;2.33;2.13;;;21.70;54.60;;;;;;5031390;28;20501;-77
2021/11/15 01:23:22;;;;;;;2.37;2.20;;;21.70;54.60;;;;;;5031043;28;20225;-77
2021/11/15 01:25:48;;;;;;;2.20;2.00;;;21.70;54.60;;;;;;5030465;28;20423;-77
2021/11/15 01:34:44;;;;;;;2.90;2.43;;;21.70;54.70;;;;;;5045883;28;20460;-77
2021/11/15 01:37:11;;;;;;;2.10;1.90;;;21.70;54.70;;;;;;5050338;28;20433;-77
2021/11/15 01:39:41;;;;;;;2.50;2.30;;;21.70;54.70;;;;;;5032970;28;20175;-78
2021/11/15 01:42:08;;;;;;;2.67;2.47;;;21.70;54.70;;;;;;5032555;28;20422;-77
2021/11/15 01:48:05;;;;;;;3.03;2.43;;;21.70;54.60;;;;;;5046561;28;20405;-77
2021/11/15 01:50:33;;;;;;;2.40;2.00;;;21.60;54.70;;;;;;5049564;28;20417;-78
2021/11/15 01:52:59;;;;;;;2.30;2.00;;;21.60;54.60;;;;;;5030682;28;20422;-77
2021/11/15 01:55:26;;;;;;;2.83;2.50;;;21.60;54.60;;;;;;5032407;28;20419;-77
2021/11/15 01:57:54;;;;;;;2.23;2.03;;;21.60;54.60;;;;;;5050344;28;20418;-77
2021/11/15 02:00:26;;;;;;;2.50;2.23;;;21.70;54.70;;;;;;5016279;28;20449;-77
2021/11/15 02:02:52;;;;;;;2.47;2.17;;;21.70;54.70;;;;;;5033935;28;20407;-77
2021/11/15 02:05:21;;;;;;;2.33;1.93;;;21.70;54.70;;;;;;5032188;28;20604;-77
2021/11/15 02:07:50;;;;;;;2.27;2.07;;;21.70;54.60;;;;;;5051218;28;20477;-77
2021/11/15 02:10:17;;;;;;;2.17;1.97;;;21.70;54.60;;;;;;5031172;28;20427;-77
2021/11/15 02:12:46;;;;;;;2.50;2.10;;;21.70;54.60;;;;;;5030315;28;20435;-77
2021/11/15 02:15:19;;;;;;;2.60;2.33;;;21.70;54.60;;;;;;5031180;28;20442;-77
2021/11/15 02:17:49;;;;;;;3.80;2.43;;;21.70;54.60;;;;;;5051048;28;20413;-77
2021/11/15 02:20:21;;;;;;;2.40;2.10;;;21.70;54.60;;;;;;5032890;28;20434;-77
2021/11/15 02:22:52;;;;;;;2.90;2.17;;;21.70;54.60;;;;;;5033283;28;20423;-77
2021/11/15 02:25:24;;;;;;;2.27;2.07;;;21.70;54.60;;;;;;5049354;28;20465;-77
2021/11/15 02:31:27;;;;;;;2.33;2.10;;;21.70;54.60;;;;;;4983593;28;20421;-77
2021/11/15 02:34:05;;;;;;;3.23;2.57;;;21.60;54.60;;;;;;5020674;28;20429;-77
2021/11/15 02:36:39;;;;;;;2.67;2.27;;;21.60;54.60;;;;;;5049316;28;20458;-77
2021/11/15 02:39:51;;;;;;;3.73;2.40;;;21.60;54.60;;;;;;5050163;28;20424;-77
2021/11/15 02:42:28;;;;;;;2.40;1.93;;;21.70;54.60;;;;;;5047501;28;20414;-77
2021/11/15 02:45:05;;;;;;;2.30;2.00;;;21.60;54.70;;;;;;5031968;28;20533;-78
2021/11/15 02:47:40;;;;;;;2.40;1.87;;;21.60;54.60;;;;;;5050167;28;20500;-78
2021/11/15 02:50:14;;;;;;;3.60;2.30;;;21.60;54.70;;;;;;5049343;28;20421;-79
2021/11/15 02:52:44;;;;;;;3.00;2.20;;;21.60;54.60;;;;;;5032076;28;20419;-79
2021/11/15 02:55:14;;;;;;;2.60;2.37;;;21.60;54.60;;;;;;5032057;28;20431;-79
2021/11/15 02:57:46;;;;;;;3.80;2.10;;;21.60;54.60;;;;;;5032767;28;20442;-78
2021/11/15 03:00:41;;;;;;;2.67;1.87;;;21.60;54.60;;;;;;5031351;28;20425;-79
2021/11/15 03:03:09;;;;;;;2.37;2.17;;;21.60;54.60;;;;;;5029498;28;20404;-79
2021/11/15 03:12:11;;;;;;;2.30;2.10;;;21.60;54.60;;;;;;5036466;28;20395;-79
2021/11/15 03:14:40;;;;;;;2.50;2.10;;;21.60;54.60;;;;;;4951338;29;20443;-78
2021/11/15 03:17:09;;;;;;;2.53;1.80;;;21.60;54.70;;;;;;4950672;29;20451;-78
2021/11/15 03:19:35;;;;;;;2.23;2.03;;;21.60;54.70;;;;;;4934284;29;20541;-77
2021/11/15 03:22:01;;;;;;;2.37;1.97;;;21.60;54.70;;;;;;4950690;29;20465;-77
2021/11/15 03:24:31;;;;;;;3.07;2.30;;;21.60;54.70;;;;;;4934865;29;20537;-78
2021/11/15 03:27:02;;;;;;;2.00;1.80;;;21.60;54.70;;;;;;4934459;29;20193;-77
2021/11/15 03:29:34;;;;;;;2.20;1.90;;;21.60;54.60;;;;;;4934932;29;20426;-79
2021/11/15 03:35:25;;;;;;;3.07;1.80;;;21.60;54.60;;;;;;4950134;29;20386;-79
2021/11/15 03:41:15;;;;;;;3.20;1.83;;;21.60;54.70;;;;;;4950798;29;20387;-79
2021/11/15 03:43:44;;;;;;;2.70;2.20;;;21.60;54.70;;;;;;4950367;29;20470;-79
2021/11/15 03:46:16;;;;;;;2.80;1.93;;;21.60;54.80;;;;;;4934017;29;20455;-78
2021/11/15 03:48:42;;;;;;;2.43;2.13;;;21.60;54.70;;;;;;4950183;29;20423;-78
2021/11/15 03:51:12;;;;;;;2.50;1.83;;;21.60;54.70;;;;;;4966400;28;20762;-79
2021/11/15 03:53:40;;;;;;;2.93;2.07;;;21.60;54.70;;;;;;5031699;28;20176;-79
2021/11/15 03:56:13;;;;;;;2.10;1.83;;;21.60;54.70;;;;;;5031366;28;20425;-79
2021/11/15 03:58:40;;;;;;;2.73;2.47;;;21.60;54.70;;;;;;5031339;28;20437;-79
2021/11/15 04:01:10;;;;;;;2.50;2.30;;;21.60;54.70;;;;;;5031859;28;20422;-79
2021/11/15 04:03:44;;;;;;;2.17;1.90;;;21.60;54.70;;;;;;5049932;28;20458;-79
2021/11/15 04:06:24;;;;;;;2.20;1.87;;;21.60;54.70;;;;;;5031780;28;20421;-78
2021/11/15 04:08:51;;;;;;;2.30;1.90;;;21.60;54.70;;;;;;5031982;28;20414;-78
2021/11/15 04:11:19;;;;;;;2.00;1.60;;;21.60;54.70;;;;;;5031687;28;20433;-79
2021/11/15 04:13:47;;;;;;;2.30;2.10;;;21.60;54.70;;;;;;5031854;28;20419;-78
2021/11/15 04:19:44;;;;;;;2.30;2.10;;;21.60;54.70;;;;;;5013976;28;20419;-79
2021/11/15 04:22:17;;;;;;;2.57;2.10;;;21.60;54.80;;;;;;5031747;28;20441;-79
2021/11/15 04:28:05;;;;;;;2.93;2.10;;;21.60;54.70;;;;;;5048816;28;20377;-78
2021/11/15 04:30:31;;;;;;;2.63;2.10;;;21.50;54.70;;;;;;5031651;28;20449;-78
2021/11/15 04:33:00;;;;;;;2.07;1.80;;;21.60;54.80;;;;;;5031390;28;20446;-78
2021/11/15 04:35:27;;;;;;;2.37;1.87;;;21.60;54.80;;;;;;5049092;28;20410;-78
2021/11/15 04:37:53;;;;;;;1.90;1.70;;;21.60;54.80;;;;;;5048111;28;20406;-79
2021/11/15 04:40:19;;;;;;;2.70;2.10;;;21.60;54.80;;;;;;5031618;28;20425;-78
2021/11/15 04:42:45;;;;;;;1.70;1.50;;;21.60;54.70;;;;;;5031069;28;20446;-77
2021/11/15 04:45:12;;;;;;;2.80;1.97;;;21.60;54.70;;;;;;5048516;28;20442;-78
2021/11/15 04:47:38;;;;;;;1.83;1.70;;;21.60;54.70;;;;;;5048624;28;20481;-78
2021/11/15 04:50:07;;;;;;;2.10;1.70;;;21.60;54.70;;;;;;5030329;28;20422;-78
2021/11/15 04:52:39;;;;;;;2.17;2.00;;;21.60;54.70;;;;;;5048142;28;20465;-79
2021/11/15 04:55:07;;;;;;;2.10;1.90;;;21.60;54.70;;;;;;5031264;28;20769;-79
2021/11/15 04:57:33;;;;;;;1.80;1.70;;;21.60;54.70;;;;;;5047939;28;20501;-80
2021/11/15 05:00:00;;;;;;;2.23;1.67;;;21.60;54.70;;;;;;5048034;28;20905;-79
2021/11/15 05:02:27;;;;;;;2.40;1.80;;;21.60;54.70;;;;;;5030694;28;20484;-80
2021/11/15 05:04:54;;;;;;;2.53;2.10;;;21.60;54.70;;;;;;5048700;28;20456;-79
2021/11/15 05:07:20;;;;;;;2.20;1.90;;;21.60;54.70;;;;;;5051397;28;20442;-79
2021/11/15 05:09:46;;;;;;;2.33;1.83;;;21.60;54.70;;;;;;5035342;28;20747;-79
2021/11/15 05:12:12;;;;;;;2.27;2.07;;;21.50;54.60;;;;;;5034497;28;20437;-80
2021/11/15 05:14:40;;;;;;;2.00;1.50;;;21.50;54.60;;;;;;5034786;28;20195;-79
2021/11/15 05:17:06;;;;;;;3.33;2.13;;;21.50;54.60;;;;;;5034950;28;20422;-79
2021/11/15 05:22:54;;;;;;;1.97;1.60;;;21.60;54.70;;;;;;5052318;28;20183;-78
2021/11/15 05:28:42;;;;;;;2.13;1.80;;;21.50;54.70;;;;;;5052740;28;20247;-78
2021/11/15 05:34:33;;;;;;;1.97;1.70;;;21.50;54.70;;;;;;5051744;28;20167;-79
2021/11/15 05:36:59;;;;;;;2.37;1.77;;;21.50;54.70;;;;;;5033122;28;20429;-78
2021/11/15 05:42:47;;;;;;;2.17;1.77;;;21.50;54.70;;;;;;5051049;28;20409;-82
2021/11/15 05:45:20;;;;;;;2.40;2.07;;;21.50;54.70;;;;;;5030319;28;20463;-82
2021/11/15 05:47:46;;;;;;;2.53;2.07;;;21.50;54.70;;;;;;5049859;28;20218;-81
2021/11/15 05:50:14;;;;;;;2.70;2.40;;;21.50;54.70;;;;;;5030395;28;20423;-82
2021/11/15 05:52:43;;;;;;;1.77;1.67;;;21.50;54.70;;;;;;5048409;28;20434;-82
2021/11/15 05:55:24;;;;;;;2.10;1.67;;;21.50;54.60;;;;;;5013759;28;20477;-82
2021/11/15 05:57:53;;;;;;;2.17;1.80;;;21.60;54.70;;;;;;5049029;28;20433;-82
2021/11/15 06:00:23;;;;;;;2.30;1.80;;;21.60;54.70;;;;;;5050075;28;20419;-84
2021/11/15 06:02:53;;;;;;;2.40;2.20;;;21.60;54.70;;;;;;5032272;28;20428;-82
2021/11/15 06:05:22;;;;;;;1.97;1.77;;;21.60;54.70;;;;;;5049892;28;20557;-81
2021/11/15 06:07:51;;;;;;;2.47;2.03;;;21.60;54.70;;;;;;5047024;28;20439;-80
2021/11/15 06:10:21;;;;;;;2.33;1.93;;;21.60;54.60;;;;;;5049076;28;20422;-79
2021/11/15 06:12:50;;;;;;;1.90;1.70;;;21.60;54.60;;;;;;5048087;28;20422;-79
2021/11/15 06:15:17;;;;;;;1.73;1.60;;;21.60;54.60;;;;;;5036487;28;20508;-79
2021/11/15 06:17:43;;;;;;;2.07;1.70;;;21.60;54.60;;;;;;5032317;28;20896;-80
2021/11/15 06:20:11;;;;;;;2.50;2.13;;;21.60;54.60;;;;;;5033532;28;20418;-80
2021/11/15 06:22:41;;;;;;;1.90;1.50;;;21.60;54.60;;;;;;5032486;28;20425;-81
2021/11/15 06:25:11;;;;;;;1.90;1.67;;;21.70;54.70;;;;;;5050712;28;20466;-80
2021/11/15 06:27:37;;;;;;;1.97;1.73;;;21.60;54.60;;;;;;5051288;28;20415;-80
2021/11/15 06:30:43;;;;;;;2.77;2.10;;;21.60;54.60;;;;;;5033609;28;20422;-81
2021/11/15 06:33:09;;;;;;;2.37;2.17;;;21.70;54.60;;;;;;5050574;28;20426;-80
2021/11/15 06:35:35;;;;;;;2.43;2.00;;;21.60;54.60;;;;;;5030137;28;20431;-79
2021/11/15 06:38:01;;;;;;;2.50;1.73;;;21.60;54.60;;;;;;5030317;28;20428;-80
2021/11/15 06:40:27;;;;;;;3.73;2.23;;;21.60;54.60;;;;;;5045400;28;20184;-79
2021/11/15 06:42:55;;;;;;;1.90;1.70;;;21.60;54.60;;;;;;5050520;28;20171;-80
2021/11/15 06:45:21;;;;;;;2.23;1.83;;;21.70;54.60;;;;;;5033080;28;20462;-79
2021/11/15 06:47:50;;;;;;;2.20;2.00;;;21.70;54.60;;;;;;5032734;28;20407;-78
2021/11/15 06:50:22;;;;;;;1.87;1.77;;;21.70;54.60;;;;;;5032954;28;20403;-79
2021/11/15 06:52:49;;;;;;;1.93;1.73;;;21.70;54.60;;;;;;5032270;28;20406;-80
2021/11/15 06:55:17;;;;;;;2.20;1.77;;;21.70;54.60;;;;;;5033113;28;20427;-80
2021/11/15 06:57:59;;;;;;;2.80;2.17;;;21.70;54.60;;;;;;5032769;28;20449;-80
2021/11/15 07:00:28;;;;;;;2.30;2.10;;;21.70;54.60;;;;;;5050514;28;20417;-80
2021/11/15 07:03:05;;;;;;;2.07;1.87;;;21.70;54.60;;;;;;5033419;28;20414;-80
2021/11/15 07:05:33;;;;;;;2.10;1.90;;;21.60;54.60;;;;;;5050003;28;20398;-80
2021/11/15 07:07:58;;;;;;;1.60;1.50;;;21.70;54.60;;;;;;5049887;28;20410;-80
2021/11/15 07:10:24;;;;;;;3.53;2.03;;;21.70;54.60;;;;;;5032240;28;20410;-80
2021/11/15 07:12:50;;;;;;;2.07;1.87;;;21.70;54.60;;;;;;5032501;28;20198;-80
2021/11/15 07:18:38;;;;;;;1.80;1.60;;;21.70;54.60;;;;;;5049133;28;20218;-80
2021/11/15 07:24:52;;;;;;;3.07;2.00;;;21.70;54.60;;;;;;5049999;28;20242;-79
2021/11/15 07:27:18;;;;;;;2.80;1.80;;;21.70;54.70;;;;;;5032028;28;20426;-80
2021/11/15 07:29:44;;;;;;;2.13;1.93;;;21.60;54.60;;;;;;5031793;28;20905;-79
2021/11/15 07:32:15;;;;;;;2.70;2.20;;;21.70;54.70;;;;;;5049869;28;20191;-80
2021/11/15 07:34:41;;;;;;;2.27;1.90;;;21.70;54.70;;;;;;5049959;28;20180;-80
2021/11/15 07:37:07;;;;;;;2.13;1.83;;;21.70;54.70;;;;;;5049781;28;20557;-81
2021/11/15 07:39:42;;;;;;;1.93;1.70;;;21.70;54.70;;;;;;5050840;28;20180;-78
2021/11/15 07:42:12;;;;;;;2.20;1.97;;;21.70;54.60;;;;;;5051051;28;20488;-78
2021/11/15 07:44:43;;;;;;;2.20;1.77;;;21.70;54.60;;;;;;5050699;28;20484;-78
2021/11/15 07:47:18;;;;;;;2.93;2.67;;;21.70;54.60;;;;;;5033168;28;20415;-77
2021/11/15 07:49:44;;;;;;;3.07;2.30;;;21.80;54.60;;;;;;5050341;28;20417;-77
2021/11/15 07:52:11;;;;;;;2.27;2.07;;;21.70;54.60;;;;;;5049020;28;20477;-79
2021/11/15 07:54:40;;;;;;;2.13;1.90;;;21.80;54.60;;;;;;5031522;28;20517;-79
2021/11/15 07:57:08;;;;;;;2.10;1.90;;;21.80;54.60;;;;;;5049102;28;20426;-78
2021/11/15 07:59:34;;;;;;;3.13;2.33;;;21.80;54.60;;;;;;5042425;28;20415;-78
2021/11/15 08:02:03;;;;;;;2.37;2.07;;;21.80;54.60;;;;;;5028325;28;20419;-78
2021/11/15 08:04:29;;;;;;;2.37;2.17;;;21.80;54.60;;;;;;5050259;28;20454;-78
2021/11/15 08:06:55;;;;;;;2.50;1.67;;;21.70;54.50;;;;;;5047948;28;20414;-78
2021/11/15 08:09:25;;;;;;;2.60;2.03;;;21.80;54.60;;;;;;5030947;28;20187;-78
2021/11/15 08:11:52;;;;;;;2.40;2.00;;;21.80;54.60;;;;;;5049270;28;20403;-79
2021/11/15 08:14:21;;;;;;;3.10;2.43;;;21.80;54.50;;;;;;5048150;28;20426;-78
2021/11/15 08:16:47;;;;;;;2.00;1.80;;;21.80;54.60;;;;;;5049070;28;20414;-78
2021/11/15 08:19:14;;;;;;;3.20;2.37;;;21.80;54.60;;;;;;5030795;28;20453;-79
2021/11/15 08:21:40;;;;;;;2.57;2.37;;;21.80;54.50;;;;;;5049227;28;20497;-78
2021/11/15 08:24:21;;;;;;;4.93;3.30;;;21.80;54.50;;;;;;5031409;28;20520;-77
2021/11/15 08:26:58;;;;;;;2.93;2.53;;;21.80;54.50;;;;;;5048905;28;20434;-77
2021/11/15 08:29:26;;;;;;;4.13;3.10;;;21.80;54.50;;;;;;5031064;28;20472;-78
2021/11/15 08:31:54;;;;;;;3.77;2.90;;;21.80;54.60;;;;;;5032404;28;20415;-78
2021/11/15 08:34:21;;;;;;;3.20;2.67;;;21.80;54.60;;;;;;5031552;28;20438;-79
2021/11/15 08:36:48;;;;;;;4.03;2.80;;;21.80;54.60;;;;;;5012469;28;20419;-79
2021/11/15 08:39:19;;;;;;;3.50;2.83;;;21.80;54.60;;;;;;5047234;28;20433;-78
2021/11/15 08:41:49;;;;;;;3.60;2.70;;;21.80;54.60;;;;;;5048900;28;20407;-78
2021/11/15 08:44:17;;;;;;;2.50;2.30;;;21.80;54.60;;;;;;5031484;28;20471;-78
2021/11/15 08:46:45;;;;;;;3.10;2.40;;;21.80;54.60;;;;;;5050847;28;20407;-78
2021/11/15 08:49:17;;;;;;;2.10;1.90;;;21.80;54.60;;;;;;5030834;28;20415;-77
2021/11/15 08:51:44;;;;;;;4.23;2.37;;;21.70;54.50;;;;;;5031542;28;20441;-78
2021/11/15 08:54:15;;;;;;;2.10;1.73;;;21.70;54.50;;;;;;5048330;28;20418;-78
2021/11/15 08:56:45;;;;;;;3.27;2.00;;;21.80;54.60;;;;;;5049590;28;20425;-78
2021/11/15 08:59:11;;;;;;;3.00;1.90;;;21.70;55.10;;;;;;5048845;28;20417;-78
2021/11/15 09:01:39;;;;;;;2.33;1.97;;;21.80;54.60;;;;;;5027756;28;20443;-78
2021/11/15 09:04:06;;;;;;;2.63;2.30;;;21.80;54.60;;;;;;5030564;28;20454;-78
2021/11/15 09:06:34;;;;;;;2.23;2.03;;;21.80;54.60;;;;;;5033095;28;20434;-78
2021/11/15 09:09:01;;;;;;;2.33;2.13;;;21.80;54.60;;;;;;5034764;28;20469;-78
2021/11/15 09:11:26;;;;;;;3.13;1.90;;;21.80;54.60;;;;;;5045938;28;20419;-78
2021/11/15 09:13:52;;;;;;;2.20;2.00;;;21.80;54.50;;;;;;5048326;28;20856;-78
2021/11/15 09:19:41;;;;;;;2.80;2.40;;;21.80;54.50;;;;;;5051852;28;20238;-79
2021/11/15 09:22:07;;;;;;;2.10;1.90;;;21.80;54.60;;;;;;5050278;28;20454;-80
2021/11/15 09:24:33;;;;;;;2.63;2.07;;;21.80;54.60;;;;;;5048998;28;20464;-78
2021/11/15 09:27:01;;;;;;;2.43;2.00;;;21.80;54.60;;;;;;5036377;28;20171;-78
2021/11/15 09:29:27;;;;;;;2.63;2.40;;;21.80;54.60;;;;;;5036245;28;20168;-78
2021/11/15 09:31:53;;;;;;;3.20;2.40;;;21.80;54.60;;;;;;5034692;28;20411;-81
2021/11/15 09:34:19;;;;;;;2.53;2.10;;;21.80;54.50;;;;;;5036631;28;20465;-78
2021/11/15 09:36:44;;;;;;;1.93;1.73;;;21.80;54.60;;;;;;5053986;28;20180;-80
2021/11/15 09:39:11;;;;;;;2.03;1.77;;;21.80;54.50;;;;;;5034007;28;20418;-78
2021/11/15 09:41:37;;;;;;;3.47;2.13;;;21.80;54.50;;;;;;5047819;28;20219;-78
2021/11/15 09:44:04;;;;;;;2.40;1.70;;;21.80;54.50;;;;;;5052551;28;20470;-78
2021/11/15 09:46:31;;;;;;;2.03;1.83;;;21.80;54.50;;;;;;5052011;28;20191;-78
2021/11/15 09:49:03;;;;;;;2.57;2.10;;;21.80;54.50;;;;;;5052194;28;20418;-80
2021/11/15 09:51:29;;;;;;;2.60;2.10;;;21.80;54.60;;;;;;5033574;28;20430;-78
2021/11/15 09:53:57;;;;;;;2.97;2.37;;;21.80;54.50;;;;;;5037127;28;20468;-78
2021/11/15 09:56:23;;;;;;;3.57;2.73;;;21.80;54.60;;;;;;5055690;28;20413;-78
2021/11/15 09:58:50;;;;;;;2.93;2.40;;;21.80;54.60;;;;;;5055592;28;20421;-79
2021/11/15 10:01:17;;;;;;;2.93;2.53;;;21.80;54.60;;;;;;5038292;28;20502;-78
2021/11/15 10:03:42;;;;;;;2.70;2.50;;;21.80;54.60;;;;;;5034851;28;20523;-78
2021/11/15 10:06:08;;;;;;;3.53;2.47;;;21.90;54.60;;;;;;5052137;28;20415;-77
2021/11/15 10:08:50;;;;;;;3.20;2.70;;;21.80;54.50;;;;;;5055588;28;20215;-79
2021/11/15 10:11:18;;;;;;;3.70;2.40;;;21.90;54.60;;;;;;5034377;28;20657;-78
2021/11/15 10:13:44;;;;;;;2.47;2.10;;;21.90;54.60;;;;;;5045739;28;20418;-78
2021/11/15 10:16:15;;;;;;;3.87;2.53;;;21.90;54.60;;;;;;5054584;28;20418;-78
2021/11/15 10:18:46;;;;;;;4.00;2.37;;;21.90;54.60;;;;;;5055383;28;20475;-77
2021/11/15 10:21:21;;;;;;;3.50;3.00;;;22.00;54.70;;;;;;5058194;28;20446;-78
2021/11/15 10:24:05;;;;;;;3.87;2.73;;;22.00;54.60;;;;;;5058958;28;20460;-78
2021/11/15 10:26:40;;;;;;;2.73;2.30;;;22.00;54.60;;;;;;5037601;28;20425;-78
2021/11/15 10:29:15;;;;;;;4.90;3.40;;;22.00;54.60;;;;;;5029622;28;20395;-78
2021/11/15 10:31:46;;;;;;;3.23;2.53;;;22.00;54.70;;;;;;5054985;28;20477;-78
2021/11/15 10:34:20;;;;;;;3.47;2.83;;;22.00;54.60;;;;;;5059408;28;20435;-79
2021/11/15 10:36:47;;;;;;;4.10;2.80;;;22.00;54.60;;;;;;5042872;28;20462;-78
2021/11/15 10:39:14;;;;;;;2.77;2.50;;;22.00;54.60;;;;;;5042418;28;20887;-78
2021/11/15 10:41:40;;;;;;;3.00;2.70;;;22.00;54.60;;;;;;5059334;28;20402;-77
2021/11/15 10:44:09;;;;;;;3.90;2.67;;;22.00;54.60;;;;;;5041947;28;20441;-79
2021/11/15 10:46:37;;;;;;;3.13;2.83;;;22.00;54.60;;;;;;5052968;28;20171;-78
2021/11/15 10:49:06;;;;;;;2.70;2.40;;;22.00;54.60;;;;;;5058229;28;20422;-78
2021/11/15 10:51:46;;;;;;;2.90;2.47;;;22.00;54.60;;;;;;5014787;28;20396;-79
2021/11/15 10:57:21;;;;;;;3.03;2.73;;;22.00;54.60;;;;;;5052309;28;20427;-78
2021/11/15 11:00:06;;;;;;;2.90;2.60;;;22.10;54.70;;;;;;5048356;28;20410;-78
2021/11/15 11:02:54;;;;;;;2.93;2.47;;;22.10;54.70;;;;;;5052293;28;20421;-78
2021/11/15 11:05:27;;;;;;;3.23;2.93;;;22.10;54.80;;;;;;5029751;28;20461;-78
2021/11/15 11:08:24;;;;;;;3.17;2.50;;;22.00;54.70;;;;;;5051814;28;20411;-78
2021/11/15 11:10:55;;;;;;;3.30;2.70;;;22.10;54.80;;;;;;5052206;28;20503;-78
2021/11/15 11:13:24;;;;;;;4.37;2.40;;;22.00;54.80;;;;;;5034134;28;20418;-77
2021/11/15 11:15:53;;;;;;;2.77;2.40;;;22.00;55.30;;;;;;5052061;28;20426;-78
2021/11/15 11:18:34;;;;;;;2.70;2.30;;;22.10;54.80;;;;;;5033634;28;20977;-79
2021/11/15 11:26:36;;;;;;;3.40;2.33;;;22.10;54.80;;;;;;5034876;28;20426;-77
2021/11/15 11:29:09;;;;;;;3.53;2.90;;;22.10;54.90;;;;;;5051578;28;20421;-78
2021/11/15 11:31:37;;;;;;;3.80;2.70;;;22.10;54.90;;;;;;5033864;28;20924;-78
2021/11/15 11:34:03;;;;;;;3.63;3.10;;;22.10;54.90;;;;;;5051325;28;20421;-78
2021/11/15 11:36:29;;;;;;;3.23;2.47;;;22.10;54.90;;;;;;5034016;28;20414;-77
2021/11/15 11:38:56;;;;;;;3.07;2.40;;;22.10;54.90;;;;;;5034848;28;20474;-77
2021/11/15 11:41:23;;;;;;;2.93;2.17;;;22.10;54.90;;;;;;5051591;28;20184;-78
2021/11/15 11:43:50;;;;;;;3.13;2.80;;;22.10;54.90;;;;;;5034314;28;20458;-77
2021/11/15 11:46:22;;;;;;;2.53;2.10;;;22.10;54.90;;;;;;5033592;28;20461;-79
2021/11/15 11:48:50;;;;;;;2.50;2.30;;;22.10;54.90;;;;;;5024657;28;20419;-78
2021/11/15 11:51:16;;;;;;;3.23;2.20;;;22.10;54.90;;;;;;5031211;28;20426;-77
2021/11/15 11:53:42;;;;;;;3.40;2.37;;;22.10;54.90;;;;;;5032473;28;20422;-77
2021/11/15 11:56:21;;;;;;;2.57;2.00;;;22.10;54.90;;;;;;5051158;28;20418;-78
2021/11/15 11:58:50;;;;;;;2.53;2.33;;;22.20;54.90;;;;;;5034295;28;20198;-77
2021/11/15 12:01:17;;;;;;;3.70;2.30;;;22.20;54.90;;;;;;5034532;28;20429;-80
2021/11/15 12:04:11;;;;;;;2.97;1.90;;;22.10;54.90;;;;;;5050210;28;20458;-78
2021/11/15 12:06:40;;;;;;;3.50;2.63;;;22.20;54.90;;;;;;5033620;28;20469;-78
2021/11/15 12:09:07;;;;;;;3.03;2.37;;;22.10;54.90;;;;;;5034554;28;20869;-78
2021/11/15 12:11:45;;;;;;;4.10;2.67;;;22.20;55.00;;;;;;5032607;28;20418;-77
2021/11/15 12:14:13;;;;;;;3.33;2.80;;;22.20;54.90;;;;;;5032555;28;20437;-78
2021/11/15 12:17:01;;;;;;;2.50;2.10;;;22.20;54.90;;;;;;5032802;28;20446;-78
2021/11/15 12:19:55;;;;;;;3.43;2.50;;;22.20;54.90;;;;;;5050866;28;20465;-77
2021/11/15 12:22:24;;;;;;;2.77;2.57;;;22.20;55.00;;;;;;5049745;28;20414;-78
2021/11/15 12:25:05;;;;;;;4.50;2.37;;;22.20;55.00;;;;;;5029073;28;20465;-78
2021/11/15 12:27:54;;;;;;;3.03;2.10;;;22.20;55.00;;;;;;5033088;28;20413;-78
2021/11/15 12:30:34;;;;;;;2.60;2.13;;;22.20;55.00;;;;;;5031662;28;20513;-80
2021/11/15 12:33:19;;;;;;;2.57;2.27;;;22.20;55.00;;;;;;5045190;28;20423;-78
2021/11/15 12:35:53;;;;;;;3.17;2.40;;;22.20;55.00;;;;;;5032905;28;20434;-78
2021/11/15 12:38:50;;;;;;;3.00;2.03;;;22.20;55.00;;;;;;5033685;28;20446;-78
2021/11/15 12:41:19;;;;;;;2.60;2.20;;;22.20;55.00;;;;;;5031414;28;20434;-78
2021/11/15 12:44:00;;;;;;;3.40;2.20;;;22.20;55.00;;;;;;5028467;28;20484;-78
2021/11/15 12:46:41;;;;;;;3.07;2.27;;;22.20;55.00;;;;;;5033539;28;20423;-78
2021/11/15 12:49:38;;;;;;;2.40;1.97;;;22.20;55.00;;;;;;5031232;28;20486;-77
2021/11/15 12:52:13;;;;;;;2.57;1.90;;;22.20;55.00;;;;;;5030259;28;20494;-77
2021/11/15 12:54:48;;;;;;;5.87;2.80;;;22.20;55.00;;;;;;5030484;28;20490;-76
2021/11/15 12:57:19;;;;;;;2.30;2.10;;;22.20;55.00;;;;;;5050886;28;20501;-78
2021/11/15 12:59:50;;;;;;;3.00;2.60;;;22.20;55.00;;;;;;5050187;28;20506;-77
2021/11/15 13:02:16;;;;;;;2.07;1.70;;;22.20;55.50;;;;;;5033852;28;20425;-77
2021/11/15 13:04:43;;;;;;;2.80;2.03;;;22.20;55.00;;;;;;5029873;28;20490;-77
2021/11/15 13:07:13;;;;;;;2.73;1.90;;;22.20;55.00;;;;;;5033112;28;20422;-77
2021/11/15 13:09:40;;;;;;;2.33;1.67;;;22.20;55.50;;;;;;5029751;28;20440;-77
2021/11/15 13:12:07;;;;;;;2.40;2.10;;;22.20;55.00;;;;;;5034156;28;20422;-78
2021/11/15 13:14:32;;;;;;;2.50;2.30;;;22.20;55.00;;;;;;5045135;28;20441;-78
2021/11/15 13:16:59;;;;;;;3.00;2.33;;;22.20;54.90;;;;;;5029670;28;20422;-76
2021/11/15 13:19:25;;;;;;;3.00;1.57;;;22.20;54.90;;;;;;5034209;28;20206;-77
2021/11/15 13:21:51;;;;;;;2.20;2.00;;;22.20;54.90;;;;;;5049329;28;20444;-77
2021/11/15 13:24:18;;;;;;;2.53;2.27;;;22.20;54.90;;;;;;5051248;28;20454;-77
2021/11/15 13:26:46;;;;;;;2.57;1.97;;;22.20;54.90;;;;;;5050739;28;20175;-77
2021/11/15 13:29:16;;;;;;;2.20;1.97;;;22.20;54.90;;;;;;5054391;28;20422;-77
2021/11/15 13:31:42;;;;;;;3.10;2.40;;;22.20;55.00;;;;;;5036899;28;20414;-77
2021/11/15 13:34:08;;;;;;;2.57;2.10;;;22.20;54.90;;;;;;5054389;28;20743;-79
2021/11/15 13:36:35;;;;;;;2.93;2.40;;;22.20;54.90;;;;;;5036483;28;20441;-78
2021/11/15 13:39:07;;;;;;;2.73;2.00;;;22.20;54.90;;;;;;5054488;28;20501;-77
2021/11/15 13:41:34;;;;;;;3.07;2.10;;;22.20;54.90;;;;;;5023386;28;20453;-76
2021/11/15 13:44:01;;;;;;;4.47;2.30;;;22.20;54.90;;;;;;5034711;28;20461;-76
2021/11/15 13:46:26;;;;;;;3.60;2.63;;;22.20;55.00;;;;;;5022864;28;20418;-76
2021/11/15 13:48:56;;;;;;;2.60;2.13;;;22.20;54.90;;;;;;5038323;28;20424;-76
2021/11/15 13:51:22;;;;;;;3.00;2.10;;;22.20;54.90;;;;;;5055278;28;20172;-76
2021/11/15 13:53:49;;;;;;;2.90;2.40;;;22.20;54.90;;;;;;5037099;28;20445;-76
2021/11/15 13:56:16;;;;;;;2.90;2.30;;;22.20;54.90;;;;;;5037351;28;20449;-76
2021/11/15 13:58:42;;;;;;;3.40;2.23;;;22.20;54.90;;;;;;5054949;28;20422;-76
2021/11/15 14:01:11;;;;;;;3.00;2.43;;;22.20;54.90;;;;;;5051481;28;20472;-76
2021/11/15 14:03:39;;;;;;;3.20;2.50;;;22.20;54.90;;;;;;5024625;28;20464;-76
2021/11/15 14:06:07;;;;;;;3.97;2.13;;;22.20;54.90;;;;;;5054989;28;20466;-77
2021/11/15 14:08:35;;;;;;;3.07;2.20;;;22.20;54.90;;;;;;5055326;28;20433;-76
2021/11/15 14:11:03;;;;;;;2.13;1.93;;;22.20;54.90;;;;;;5018297;28;20434;-76
2021/11/15 14:13:30;;;;;;;3.50;2.80;;;22.10;54.80;;;;;;5033991;28;20411;-76
2021/11/15 14:15:57;;;;;;;2.50;2.30;;;22.20;54.90;;;;;;5033884;28;20396;-75
2021/11/15 14:18:24;;;;;;;2.57;1.90;;;22.10;54.80;;;;;;5016155;28;20420;-77